Time;durP1;ratioP1;P1;durP2;ratioP2;P2;SDS_P1;SDS_P2;PMS_P1;PMS_P2;Temp;Humidity;BMP_temperature;BMP_pressure;BME280_temperature;BME280_humidity;BME280_pressure;Samples;Min_cycle;Max_cycle;Signal;HPM_P1;HPM_P2
2022/05/06 00:00:06;;;;;;;6.68;4.18;;;;;;;;;;5080258;28;20067;-69
2022/05/06 00:02:32;;;;;;;6.78;3.67;;;;;;;;;;5063644;28;20524;-69
2022/05/06 00:04:58;;;;;;;6.72;4.10;;;;;;;;;;5079843;28;20497;-69
2022/05/06 00:07:25;;;;;;;6.95;3.88;;;;;;;;;;5061611;28;20041;-69
2022/05/06 00:09:51;;;;;;;6.85;3.60;;;;;;;;;;5025366;28;20598;-68
2022/05/06 00:12:19;;;;;;;6.32;3.10;;;;;;;;;;5058589;28;20043;-70
2022/05/06 00:14:45;;;;;;;6.30;3.50;;;;;;;;;;5080328;28;20051;-69
2022/05/06 00:17:11;;;;;;;6.80;3.90;;;;;;;;;;5080479;28;20418;-69
2022/05/06 00:19:38;;;;;;;7.47;4.28;;;;;;;;;;5079512;28;20212;-69
2022/05/06 00:22:04;;;;;;;6.50;3.75;;;;;;;;;;5079893;28;20031;-70
2022/05/06 00:24:30;;;;;;;7.15;4.00;;;;;;;;;;5079698;28;20140;-70
2022/05/06 00:26:57;;;;;;;6.13;3.78;;;;;;;;;;5063273;28;20119;-70
2022/05/06 00:29:23;;;;;;;6.97;4.00;;;;;;;;;;5062618;28;20044;-70
2022/05/06 00:31:48;;;;;;;7.00;4.03;;;;;;;;;;5079942;28;20036;-70
2022/05/06 00:34:15;;;;;;;6.53;3.72;;;;;;;;;;5062852;28;20536;-71
2022/05/06 00:36:41;;;;;;;7.72;3.90;;;;;;;;;;5078783;28;20544;-70
2022/05/06 00:39:07;;;;;;;5.93;3.20;;;;;;;;;;5062683;28;20050;-70
2022/05/06 00:41:34;;;;;;;8.32;3.92;;;;;;;;;;5062550;28;20485;-69
2022/05/06 00:44:00;;;;;;;8.02;4.10;;;;;;;;;;5080520;28;20527;-70
2022/05/06 00:46:26;;;;;;;7.47;4.22;;;;;;;;;;5079728;28;20052;-69
2022/05/06 00:48:55;;;;;;;7.75;4.20;;;;;;;;;;5079608;28;20672;-70
2022/05/06 00:51:21;;;;;;;7.50;4.38;;;;;;;;;;5062300;28;20068;-70
2022/05/06 00:53:47;;;;;;;6.70;3.90;;;;;;;;;;5059662;28;20090;-71
2022/05/06 00:56:15;;;;;;;6.95;4.10;;;;;;;;;;5059613;28;20429;-70
2022/05/06 00:58:42;;;;;;;8.07;4.35;;;;;;;;;;5059600;28;20340;-70
2022/05/06 01:01:08;;;;;;;6.95;3.80;;;;;;;;;;5042896;28;20140;-70
2022/05/06 01:03:35;;;;;;;7.32;4.43;;;;;;;;;;5059682;28;20052;-70
2022/05/06 01:06:03;;;;;;;7.40;4.18;;;;;;;;;;5059177;28;20105;-70
2022/05/06 01:08:29;;;;;;;6.90;3.97;;;;;;;;;;5058903;28;20136;-70
2022/05/06 01:10:57;;;;;;;7.35;3.80;;;;;;;;;;5063056;28;20047;-70
2022/05/06 01:13:23;;;;;;;7.35;4.10;;;;;;;;;;5079244;28;20040;-70
2022/05/06 01:15:49;;;;;;;6.88;3.88;;;;;;;;;;5078875;28;20119;-70
2022/05/06 01:18:15;;;;;;;8.13;4.32;;;;;;;;;;5079249;28;20476;-70
2022/05/06 01:20:51;;;;;;;6.70;4.13;;;;;;;;;;5078847;28;20286;-70
2022/05/06 01:23:17;;;;;;;7.07;3.90;;;;;;;;;;5078547;28;20479;-71
2022/05/06 01:25:44;;;;;;;8.32;4.50;;;;;;;;;;5062090;28;20235;-70
2022/05/06 01:28:13;;;;;;;8.05;4.53;;;;;;;;;;5077870;28;20582;-69
2022/05/06 01:30:47;;;;;;;7.45;4.00;;;;;;;;;;5042055;28;20043;-70
2022/05/06 01:33:14;;;;;;;7.97;4.43;;;;;;;;;;5060240;28;20173;-70
2022/05/06 01:35:44;;;;;;;7.80;3.88;;;;;;;;;;5057914;28;20438;-70
2022/05/06 01:38:12;;;;;;;6.20;3.65;;;;;;;;;;5075572;28;20168;-70
2022/05/06 01:40:46;;;;;;;7.78;4.60;;;;;;;;;;5078661;28;20635;-70
2022/05/06 01:43:16;;;;;;;8.30;4.30;;;;;;;;;;5078675;28;20036;-70
2022/05/06 01:45:43;;;;;;;6.95;4.45;;;;;;;;;;5078665;28;20077;-70
2022/05/06 01:48:09;;;;;;;7.57;4.68;;;;;;;;;;5078250;28;20142;-70
2022/05/06 01:50:37;;;;;;;7.07;4.10;;;;;;;;;;5078438;28;20041;-70
2022/05/06 01:53:03;;;;;;;7.18;4.00;;;;;;;;;;5078964;28;20044;-70
2022/05/06 01:55:30;;;;;;;7.95;4.63;;;;;;;;;;5078387;28;20048;-70
2022/05/06 01:57:55;;;;;;;7.90;3.95;;;;;;;;;;5078258;28;20312;-70
2022/05/06 02:00:21;;;;;;;7.55;3.88;;;;;;;;;;5078565;28;20123;-70
2022/05/06 02:02:47;;;;;;;7.18;4.10;;;;;;;;;;5078088;28;20436;-70
2022/05/06 02:05:20;;;;;;;7.35;4.28;;;;;;;;;;5077843;28;20225;-70
2022/05/06 02:07:49;;;;;;;7.80;4.20;;;;;;;;;;5077940;28;20052;-71
2022/05/06 02:10:16;;;;;;;6.53;4.07;;;;;;;;;;5078235;28;20221;-71
2022/05/06 02:12:45;;;;;;;7.07;4.30;;;;;;;;;;5078435;28;20062;-70
2022/05/06 02:15:12;;;;;;;6.28;3.67;;;;;;;;;;5078066;28;20115;-70
2022/05/06 02:17:41;;;;;;;6.90;3.80;;;;;;;;;;5061435;28;20503;-70
2022/05/06 02:20:09;;;;;;;7.13;4.03;;;;;;;;;;5077676;28;20059;-71
2022/05/06 02:22:35;;;;;;;6.50;3.67;;;;;;;;;;5077813;28;20249;-70
2022/05/06 02:25:02;;;;;;;7.65;4.05;;;;;;;;;;5077722;28;20128;-70
2022/05/06 02:27:28;;;;;;;6.85;4.07;;;;;;;;;;5077248;28;20048;-70
2022/05/06 02:35:23;;;;;;;;;;;;;;;;;;5057923;28;20312;-71
2022/05/06 02:37:49;;;;;;;7.90;4.25;;;;;;;;;;5041213;28;20455;-70
2022/05/06 02:40:15;;;;;;;7.32;4.43;;;;;;;;;;5057369;28;20120;-70
2022/05/06 02:42:41;;;;;;;7.60;4.35;;;;;;;;;;5057870;28;20417;-70
2022/05/06 02:45:07;;;;;;;6.78;4.10;;;;;;;;;;5058154;28;20040;-70
2022/05/06 02:47:33;;;;;;;7.68;4.20;;;;;;;;;;5075018;28;20392;-70
2022/05/06 02:49:59;;;;;;;7.68;4.47;;;;;;;;;;5077838;28;20048;-70
2022/05/06 02:52:25;;;;;;;9.70;4.05;;;;;;;;;;5077979;28;20101;-70
2022/05/06 02:54:51;;;;;;;7.40;4.07;;;;;;;;;;5077733;28;20040;-70
2022/05/06 02:57:17;;;;;;;7.25;4.32;;;;;;;;;;5077777;28;20114;-70
2022/05/06 02:59:43;;;;;;;9.55;4.38;;;;;;;;;;5077924;28;20410;-70
2022/05/06 03:02:09;;;;;;;7.32;4.63;;;;;;;;;;5065269;28;20145;-70
2022/05/06 03:04:36;;;;;;;7.28;4.43;;;;;;;;;;5081506;28;20044;-70
2022/05/06 03:07:06;;;;;;;7.40;4.03;;;;;;;;;;5081745;28;20051;-70
2022/05/06 03:09:33;;;;;;;7.22;3.72;;;;;;;;;;5064651;28;20105;-70
2022/05/06 03:11:59;;;;;;;8.40;4.30;;;;;;;;;;5081817;28;20544;-70
2022/05/06 03:14:25;;;;;;;8.25;4.30;;;;;;;;;;5082220;28;20072;-70
2022/05/06 03:16:51;;;;;;;7.35;4.22;;;;;;;;;;5082011;28;20070;-69
2022/05/06 03:19:17;;;;;;;7.28;4.53;;;;;;;;;;5082023;28;20586;-70
2022/05/06 03:21:46;;;;;;;8.05;4.90;;;;;;;;;;5081552;28;20040;-70
2022/05/06 03:24:12;;;;;;;7.78;4.53;;;;;;;;;;5080876;28;20219;-70
2022/05/06 03:26:38;;;;;;;7.63;4.20;;;;;;;;;;5064491;28;20103;-70
2022/05/06 03:29:04;;;;;;;7.68;4.53;;;;;;;;;;5081516;28;20053;-70
2022/05/06 03:31:30;;;;;;;6.93;3.88;;;;;;;;;;5064737;28;20043;-70
2022/05/06 03:33:58;;;;;;;9.48;4.82;;;;;;;;;;5081561;28;20052;-70
2022/05/06 03:36:25;;;;;;;8.15;4.60;;;;;;;;;;5081028;28;20044;-70
2022/05/06 03:38:51;;;;;;;7.90;4.75;;;;;;;;;;5081067;28;20697;-70
2022/05/06 03:41:17;;;;;;;7.28;4.25;;;;;;;;;;5080443;28;20605;-70
2022/05/06 03:43:43;;;;;;;8.00;4.32;;;;;;;;;;5081122;28;20105;-70
2022/05/06 03:46:09;;;;;;;6.97;3.95;;;;;;;;;;5063778;28;20195;-71
2022/05/06 03:48:35;;;;;;;6.95;4.05;;;;;;;;;;5080766;28;20048;-71
2022/05/06 03:53:46;;;;;;;;;;;;;;;;;;5080943;28;20051;-71
2022/05/06 03:56:12;;;;;;;7.68;4.50;;;;;;;;;;5080302;28;19916;-70
2022/05/06 03:58:38;;;;;;;7.88;4.30;;;;;;;;;;5080855;28;20436;-70
2022/05/06 04:01:04;;;;;;;7.38;4.88;;;;;;;;;;5080341;28;20036;-70
2022/05/06 04:03:31;;;;;;;7.05;4.53;;;;;;;;;;5080685;28;20507;-70
2022/05/06 04:05:57;;;;;;;8.23;4.88;;;;;;;;;;5080553;28;20043;-69
2022/05/06 04:08:24;;;;;;;7.70;4.90;;;;;;;;;;5080332;28;20040;-69
2022/05/06 04:10:50;;;;;;;8.85;5.35;;;;;;;;;;5079678;28;20040;-69
2022/05/06 04:13:18;;;;;;;9.38;5.07;;;;;;;;;;5080717;28;20432;-69
2022/05/06 04:15:45;;;;;;;9.85;5.50;;;;;;;;;;5080417;28;20047;-70
2022/05/06 04:18:11;;;;;;;9.40;5.47;;;;;;;;;;5079978;28;20119;-69
2022/05/06 04:23:32;;;;;;;8.48;5.63;;;;;;;;;;5080080;28;20463;-70
2022/05/06 04:26:01;;;;;;;8.18;5.15;;;;;;;;;;5079881;28;20412;-70
2022/05/06 04:28:28;;;;;;;8.15;4.93;;;;;;;;;;5080071;28;20066;-70
2022/05/06 04:30:54;;;;;;;7.85;5.07;;;;;;;;;;5079989;28;20573;-72
2022/05/06 04:33:21;;;;;;;9.20;5.43;;;;;;;;;;5081259;28;20619;-69
2022/05/06 04:35:47;;;;;;;9.15;6.00;;;;;;;;;;5079667;28;20048;-70
2022/05/06 04:38:14;;;;;;;9.60;6.00;;;;;;;;;;5079907;28;20044;-70
2022/05/06 04:40:40;;;;;;;10.05;5.22;;;;;;;;;;5078782;28;20075;-70
2022/05/06 04:43:06;;;;;;;9.55;5.95;;;;;;;;;;5063044;28;20522;-70
2022/05/06 04:45:36;;;;;;;9.65;5.72;;;;;;;;;;5079289;28;20044;-70
2022/05/06 04:48:04;;;;;;;10.23;6.35;;;;;;;;;;5079686;28;20677;-70
2022/05/06 04:50:30;;;;;;;9.52;5.82;;;;;;;;;;5079566;28;20115;-70
2022/05/06 04:52:56;;;;;;;10.32;6.55;;;;;;;;;;5062243;28;20337;-70
2022/05/06 04:55:22;;;;;;;9.20;6.00;;;;;;;;;;5079715;28;20052;-70
2022/05/06 04:57:49;;;;;;;10.27;6.25;;;;;;;;;;5079232;28;20043;-70
2022/05/06 05:00:15;;;;;;;9.27;5.90;;;;;;;;;;5079380;28;20347;-71
2022/05/06 05:02:41;;;;;;;9.60;5.72;;;;;;;;;;5079260;28;20499;-70
2022/05/06 05:05:07;;;;;;;9.15;6.20;;;;;;;;;;5078297;28;20040;-70
2022/05/06 05:07:34;;;;;;;9.23;5.93;;;;;;;;;;5079101;28;20356;-70
2022/05/06 05:10:00;;;;;;;9.23;5.95;;;;;;;;;;5079113;28;20089;-70
2022/05/06 05:12:26;;;;;;;9.90;6.65;;;;;;;;;;5078676;28;20043;-69
2022/05/06 05:14:52;;;;;;;8.93;6.25;;;;;;;;;;5078642;28;20115;-70
2022/05/06 05:17:18;;;;;;;8.45;5.60;;;;;;;;;;5078855;28;20040;-70
2022/05/06 05:19:45;;;;;;;8.60;5.78;;;;;;;;;;5078938;28;20416;-70
2022/05/06 05:22:11;;;;;;;9.15;6.18;;;;;;;;;;5078948;28;20386;-70
2022/05/06 05:24:37;;;;;;;9.23;6.15;;;;;;;;;;5078584;28;20055;-70
2022/05/06 05:27:03;;;;;;;9.02;5.60;;;;;;;;;;5078701;28;20265;-69
2022/05/06 05:29:29;;;;;;;9.68;5.63;;;;;;;;;;5078691;28;20588;-70
2022/05/06 05:31:56;;;;;;;9.55;6.28;;;;;;;;;;5078731;28;20493;-69
2022/05/06 05:34:22;;;;;;;8.43;5.70;;;;;;;;;;5061046;28;20413;-69
2022/05/06 05:36:48;;;;;;;8.80;6.03;;;;;;;;;;5068266;28;20124;-69
2022/05/06 05:39:14;;;;;;;8.82;5.60;;;;;;;;;;5057849;28;20539;-70
2022/05/06 05:41:40;;;;;;;9.00;5.60;;;;;;;;;;5058135;28;20079;-69
2022/05/06 05:49:35;;;;;;;;;;;;;;;;;;5058495;28;20122;-69
2022/05/06 05:52:01;;;;;;;7.82;4.90;;;;;;;;;;5058561;28;19916;-70
2022/05/06 05:54:28;;;;;;;7.88;5.50;;;;;;;;;;5057593;28;20040;-69
2022/05/06 05:56:54;;;;;;;7.95;5.03;;;;;;;;;;5058141;28;20543;-70
2022/05/06 05:59:20;;;;;;;8.05;5.28;;;;;;;;;;5057478;28;20158;-70
2022/05/06 06:01:46;;;;;;;7.07;4.70;;;;;;;;;;5057998;28;20090;-69
2022/05/06 06:04:12;;;;;;;7.07;4.53;;;;;;;;;;5058290;28;20594;-69
2022/05/06 06:06:38;;;;;;;7.28;4.57;;;;;;;;;;5059481;28;20059;-69
2022/05/06 06:09:04;;;;;;;6.53;4.15;;;;;;;;;;5057645;28;20262;-69
2022/05/06 06:11:30;;;;;;;6.95;4.05;;;;;;;;;;5040960;28;20355;-69
2022/05/06 06:13:56;;;;;;;7.28;4.65;;;;;;;;;;5058321;28;20076;-69
2022/05/06 06:16:22;;;;;;;7.88;5.28;;;;;;;;;;5057926;28;20217;-70
2022/05/06 06:18:48;;;;;;;7.75;4.63;;;;;;;;;;5057739;28;20067;-70
2022/05/06 06:21:14;;;;;;;7.07;4.32;;;;;;;;;;5057482;28;20037;-69
2022/05/06 06:23:40;;;;;;;6.57;4.32;;;;;;;;;;5057779;28;20421;-69
2022/05/06 06:26:06;;;;;;;7.20;4.35;;;;;;;;;;5057577;28;20053;-69
2022/05/06 06:28:32;;;;;;;7.20;4.30;;;;;;;;;;5057878;28;20041;-69
2022/05/06 06:30:58;;;;;;;6.72;4.07;;;;;;;;;;5040778;28;20063;-70
2022/05/06 06:33:24;;;;;;;6.88;4.55;;;;;;;;;;5057788;28;20103;-69
2022/05/06 06:35:50;;;;;;;6.82;4.63;;;;;;;;;;5058616;28;20324;-69
2022/05/06 06:38:16;;;;;;;7.53;4.75;;;;;;;;;;5079597;28;20425;-70
2022/05/06 06:40:42;;;;;;;7.53;4.90;;;;;;;;;;5081600;28;20511;-70
2022/05/06 06:43:08;;;;;;;6.85;4.00;;;;;;;;;;5064771;28;20040;-70
2022/05/06 06:45:35;;;;;;;6.97;4.43;;;;;;;;;;5065102;28;20062;-69
2022/05/06 06:48:02;;;;;;;6.85;4.15;;;;;;;;;;5081852;28;20382;-69
2022/05/06 06:50:28;;;;;;;6.10;3.42;;;;;;;;;;5064733;28;20580;-70
2022/05/06 06:52:54;;;;;;;7.15;4.50;;;;;;;;;;5081600;28;20035;-69
2022/05/06 06:55:20;;;;;;;7.32;4.53;;;;;;;;;;5081305;28;20116;-69
2022/05/06 06:57:46;;;;;;;7.75;4.68;;;;;;;;;;5081650;28;20118;-69
2022/05/06 07:00:12;;;;;;;7.07;4.43;;;;;;;;;;5081852;28;20566;-69
2022/05/06 07:02:39;;;;;;;6.78;4.18;;;;;;;;;;5081856;28;20301;-69
2022/05/06 07:05:06;;;;;;;6.57;4.25;;;;;;;;;;5081532;28;20063;-69
2022/05/06 07:13:01;;;;;;;;;;;;;;;;;;5081805;28;20044;-69
2022/05/06 07:15:29;;;;;;;7.18;4.30;;;;;;;;;;5080845;28;19923;-69
2022/05/06 07:17:56;;;;;;;7.18;4.53;;;;;;;;;;5064312;28;20123;-69
2022/05/06 07:20:22;;;;;;;7.80;4.65;;;;;;;;;;5081344;28;20044;-69
2022/05/06 07:22:48;;;;;;;7.95;4.90;;;;;;;;;;5080686;28;20056;-70
2022/05/06 07:25:14;;;;;;;6.53;3.90;;;;;;;;;;5082723;28;20055;-69
2022/05/06 07:27:40;;;;;;;6.63;4.00;;;;;;;;;;5064053;28;20082;-69
2022/05/06 07:30:09;;;;;;;7.53;4.18;;;;;;;;;;5064157;28;20047;-70
2022/05/06 07:32:37;;;;;;;8.57;4.63;;;;;;;;;;5064535;28;20432;-70
2022/05/06 07:35:03;;;;;;;7.10;4.30;;;;;;;;;;5080847;28;20300;-70
2022/05/06 07:37:33;;;;;;;7.85;4.55;;;;;;;;;;5063653;28;20067;-70
2022/05/06 07:39:59;;;;;;;7.82;4.60;;;;;;;;;;5081033;28;20044;-71
2022/05/06 07:42:25;;;;;;;9.02;5.10;;;;;;;;;;5081799;28;20673;-71
2022/05/06 07:44:51;;;;;;;8.50;4.57;;;;;;;;;;5060923;28;20366;-71
2022/05/06 07:47:17;;;;;;;7.55;4.15;;;;;;;;;;5043185;28;20440;-71
2022/05/06 07:49:43;;;;;;;7.15;4.22;;;;;;;;;;5043310;28;20045;-71
2022/05/06 07:52:09;;;;;;;6.68;4.10;;;;;;;;;;5060979;28;20302;-71
2022/05/06 07:54:35;;;;;;;7.80;4.68;;;;;;;;;;5060589;28;20090;-70
2022/05/06 07:57:01;;;;;;;7.35;4.30;;;;;;;;;;5060520;28;20049;-71
2022/05/06 07:59:27;;;;;;;8.07;4.75;;;;;;;;;;5060221;28;20056;-70
2022/05/06 08:04:38;;;;;;;7.90;4.90;;;;;;;;;;5060874;28;20044;-71
2022/05/06 08:07:05;;;;;;;7.05;4.10;;;;;;;;;;5060249;28;20443;-70
2022/05/06 08:09:32;;;;;;;7.55;4.60;;;;;;;;;;5060164;28;20060;-71
2022/05/06 08:11:58;;;;;;;6.95;4.03;;;;;;;;;;5043910;28;20335;-72
2022/05/06 08:14:24;;;;;;;7.50;4.18;;;;;;;;;;5061563;28;20040;-71
2022/05/06 08:16:50;;;;;;;7.57;4.72;;;;;;;;;;5060157;28;20379;-71
2022/05/06 08:19:17;;;;;;;8.05;4.50;;;;;;;;;;5059972;28;20144;-71
2022/05/06 08:21:43;;;;;;;7.10;4.22;;;;;;;;;;5043611;28;20089;-69
2022/05/06 08:24:09;;;;;;;6.93;4.28;;;;;;;;;;5061084;28;20113;-71
2022/05/06 08:26:35;;;;;;;7.80;4.57;;;;;;;;;;5060580;28;20051;-71
2022/05/06 08:29:01;;;;;;;7.03;4.10;;;;;;;;;;5060172;28;20044;-70
2022/05/06 08:31:27;;;;;;;6.88;4.00;;;;;;;;;;5060745;28;20531;-70
2022/05/06 08:33:57;;;;;;;6.88;3.85;;;;;;;;;;5059833;28;20470;-70
2022/05/06 08:36:23;;;;;;;7.20;4.65;;;;;;;;;;5042778;28;20122;-70
2022/05/06 08:38:49;;;;;;;6.55;3.85;;;;;;;;;;5059776;28;20466;-70
2022/05/06 08:41:15;;;;;;;7.32;4.60;;;;;;;;;;5058890;28;20043;-70
2022/05/06 08:43:41;;;;;;;8.30;4.50;;;;;;;;;;5059283;28;20045;-70
2022/05/06 08:51:39;;;;;;;6.68;3.78;;;;;;;;;;5058574;28;19916;-70
2022/05/06 08:54:05;;;;;;;7.03;4.40;;;;;;;;;;5058863;28;20355;-71
2022/05/06 08:56:31;;;;;;;7.55;4.18;;;;;;;;;;5059232;28;20454;-71
2022/05/06 08:58:57;;;;;;;7.53;4.05;;;;;;;;;;5058337;28;20075;-70
2022/05/06 09:01:24;;;;;;;6.50;3.72;;;;;;;;;;5059274;28;20047;-71
2022/05/06 09:03:50;;;;;;;7.57;4.13;;;;;;;;;;5058938;28;20295;-71
2022/05/06 09:06:20;;;;;;;6.60;3.65;;;;;;;;;;5058842;28;20048;-71
2022/05/06 09:08:47;;;;;;;6.90;4.03;;;;;;;;;;5059066;28;20079;-70
2022/05/06 09:11:13;;;;;;;7.30;4.22;;;;;;;;;;5042261;28;20032;-70
2022/05/06 09:13:51;;;;;;;6.28;3.90;;;;;;;;;;5058841;28;20047;-71
2022/05/06 09:16:39;;;;;;;7.03;3.95;;;;;;;;;;5058689;28;20074;-71
2022/05/06 09:19:15;;;;;;;7.20;3.92;;;;;;;;;;5058502;28;20509;-70
2022/05/06 09:21:41;;;;;;;6.97;3.95;;;;;;;;;;5058944;28;20040;-71
2022/05/06 09:24:20;;;;;;;6.53;3.83;;;;;;;;;;5041927;28;20280;-70
2022/05/06 09:27:00;;;;;;;6.53;3.80;;;;;;;;;;5058565;28;20406;-70
2022/05/06 09:29:26;;;;;;;6.30;3.50;;;;;;;;;;5041795;28;20195;-70
2022/05/06 09:31:54;;;;;;;6.72;3.65;;;;;;;;;;5058592;28;20086;-71
2022/05/06 09:34:26;;;;;;;6.45;3.25;;;;;;;;;;5041841;28;20478;-70
2022/05/06 09:36:52;;;;;;;6.32;3.17;;;;;;;;;;5041671;28;20033;-70
2022/05/06 09:39:21;;;;;;;5.75;3.20;;;;;;;;;;5041502;28;20180;-71
2022/05/06 09:41:48;;;;;;;6.57;3.60;;;;;;;;;;5055315;28;20362;-71
2022/05/06 09:44:14;;;;;;;7.40;3.35;;;;;;;;;;5080058;28;20477;-70
2022/05/06 09:46:40;;;;;;;6.20;3.25;;;;;;;;;;5061357;28;20571;-71
2022/05/06 09:49:06;;;;;;;7.45;4.00;;;;;;;;;;5078342;28;20079;-70
2022/05/06 09:51:33;;;;;;;6.03;3.17;;;;;;;;;;5078310;28;20043;-70
2022/05/06 09:54:00;;;;;;;6.00;3.33;;;;;;;;;;5078511;28;20040;-70
2022/05/06 09:56:27;;;;;;;5.60;2.88;;;;;;;;;;5077931;28;20097;-70
2022/05/06 09:58:53;;;;;;;6.03;3.30;;;;;;;;;;5077844;28;20641;-70
2022/05/06 10:01:19;;;;;;;5.60;3.00;;;;;;;;;;5078385;28;20247;-70
2022/05/06 10:03:46;;;;;;;5.68;3.08;;;;;;;;;;5078193;28;20056;-70
2022/05/06 10:06:12;;;;;;;6.35;3.30;;;;;;;;;;5061162;28;20074;-70
2022/05/06 10:08:43;;;;;;;6.57;3.22;;;;;;;;;;5077822;28;20115;-71
2022/05/06 10:11:12;;;;;;;6.38;3.50;;;;;;;;;;5077401;28;20040;-70
2022/05/06 10:13:43;;;;;;;5.88;3.22;;;;;;;;;;5078037;28;20063;-70
2022/05/06 10:16:09;;;;;;;6.15;3.08;;;;;;;;;;5071128;28;20437;-71
2022/05/06 10:18:39;;;;;;;5.35;2.90;;;;;;;;;;5068915;28;20140;-70
2022/05/06 10:21:06;;;;;;;5.57;2.88;;;;;;;;;;5060848;28;20155;-70
2022/05/06 10:23:51;;;;;;;5.45;2.92;;;;;;;;;;5061199;28;20141;-70
2022/05/06 10:26:42;;;;;;;5.47;3.03;;;;;;;;;;5061292;28;20434;-69
2022/05/06 10:34:57;;;;;;;5.60;2.78;;;;;;;;;;5077752;28;20048;-70
2022/05/06 10:37:26;;;;;;;5.93;3.17;;;;;;;;;;5077888;28;20047;-69
2022/05/06 10:39:52;;;;;;;5.88;2.88;;;;;;;;;;5061388;28;20040;-70
2022/05/06 10:42:19;;;;;;;5.15;2.75;;;;;;;;;;5077763;28;20055;-70
2022/05/06 10:44:45;;;;;;;5.68;2.80;;;;;;;;;;5077835;28;20298;-70
2022/05/06 10:47:11;;;;;;;4.97;2.63;;;;;;;;;;5077977;28;20059;-70
2022/05/06 10:49:41;;;;;;;5.10;2.63;;;;;;;;;;5077533;28;20440;-70
2022/05/06 10:52:25;;;;;;;4.57;2.42;;;;;;;;;;5077408;28;20354;-70
2022/05/06 10:55:00;;;;;;;4.53;2.20;;;;;;;;;;5060788;28;20040;-70
2022/05/06 10:57:27;;;;;;;5.10;2.40;;;;;;;;;;5077572;28;20231;-70
2022/05/06 11:00:02;;;;;;;4.82;2.50;;;;;;;;;;5077627;28;20044;-69
2022/05/06 11:02:35;;;;;;;5.00;2.65;;;;;;;;;;5077849;28;20036;-70
2022/05/06 11:05:01;;;;;;;4.95;2.50;;;;;;;;;;5077676;28;20347;-69
2022/05/06 11:07:28;;;;;;;4.70;2.45;;;;;;;;;;5077347;28;20524;-69
2022/05/06 11:09:54;;;;;;;5.63;2.30;;;;;;;;;;5060360;28;20048;-69
2022/05/06 11:12:36;;;;;;;5.43;2.85;;;;;;;;;;5060952;28;20062;-70
2022/05/06 11:15:04;;;;;;;5.10;2.58;;;;;;;;;;5077217;28;20067;-69
2022/05/06 11:17:33;;;;;;;4.55;2.40;;;;;;;;;;5078972;28;20119;-69
2022/05/06 11:20:00;;;;;;;5.00;2.10;;;;;;;;;;5077364;28;20044;-70
2022/05/06 11:22:26;;;;;;;5.25;2.42;;;;;;;;;;5080236;28;20135;-71
2022/05/06 11:24:56;;;;;;;4.57;2.30;;;;;;;;;;5072548;28;20044;-71
2022/05/06 11:27:22;;;;;;;4.90;2.40;;;;;;;;;;5060575;28;20506;-71
2022/05/06 11:29:58;;;;;;;4.70;2.30;;;;;;;;;;5060552;28;20151;-71
2022/05/06 11:32:25;;;;;;;4.30;2.15;;;;;;;;;;5061267;28;20072;-71
2022/05/06 11:35:07;;;;;;;4.57;2.20;;;;;;;;;;5060576;28;20080;-71
2022/05/06 11:37:34;;;;;;;4.05;1.95;;;;;;;;;;5060727;28;20181;-70
2022/05/06 11:40:18;;;;;;;4.40;2.10;;;;;;;;;;5043766;28;20036;-71
2022/05/06 11:42:44;;;;;;;;;;;;;;;;;;5044723;28;20398;-71
2022/05/06 11:48:07;;;;;;;4.72;2.28;;;;;;;;;;5060796;28;20284;-71
2022/05/06 11:50:34;;;;;;;4.57;2.20;;;;;;;;;;5060852;28;20420;-71
2022/05/06 11:53:01;;;;;;;4.57;2.10;;;;;;;;;;5060757;28;20067;-71
2022/05/06 11:55:28;;;;;;;4.53;2.10;;;;;;;;;;5060176;28;20059;-71
2022/05/06 11:57:56;;;;;;;4.07;1.90;;;;;;;;;;5044088;28;20390;-68
2022/05/06 12:00:22;;;;;;;3.83;1.90;;;;;;;;;;5059964;28;20044;-71
2022/05/06 12:02:48;;;;;;;4.00;1.85;;;;;;;;;;5060311;28;20068;-69
2022/05/06 12:05:14;;;;;;;3.88;1.77;;;;;;;;;;5059865;28;20076;-69
2022/05/06 12:07:47;;;;;;;3.97;1.80;;;;;;;;;;5059831;28;20045;-69
2022/05/06 12:10:26;;;;;;;4.20;2.00;;;;;;;;;;5059958;28;20365;-69
2022/05/06 12:12:53;;;;;;;3.80;1.80;;;;;;;;;;5059579;28;20040;-69
2022/05/06 12:15:19;;;;;;;3.72;1.77;;;;;;;;;;5059898;28;20033;-69
2022/05/06 12:17:45;;;;;;;3.70;1.67;;;;;;;;;;5059662;28;20102;-69
2022/05/06 12:20:30;;;;;;;3.95;1.85;;;;;;;;;;5059572;28;20044;-69
2022/05/06 12:22:59;;;;;;;4.95;2.03;;;;;;;;;;5059703;28;20092;-69
2022/05/06 12:25:26;;;;;;;3.38;1.65;;;;;;;;;;5059040;28;20052;-69
2022/05/06 12:28:10;;;;;;;4.20;1.75;;;;;;;;;;5060085;28;20371;-69
2022/05/06 12:30:37;;;;;;;3.78;1.83;;;;;;;;;;5079610;28;20210;-69
2022/05/06 12:33:07;;;;;;;3.45;1.60;;;;;;;;;;5079588;28;20157;-69
2022/05/06 12:35:56;;;;;;;3.53;1.70;;;;;;;;;;5079728;28;20042;-69
2022/05/06 12:38:23;;;;;;;3.20;1.60;;;;;;;;;;5079647;28;20518;-69
2022/05/06 12:40:52;;;;;;;3.63;1.70;;;;;;;;;;5079740;28;20396;-69
2022/05/06 12:43:25;;;;;;;4.40;1.70;;;;;;;;;;5079955;28;20134;-70
2022/05/06 12:45:52;;;;;;;3.45;1.70;;;;;;;;;;5079769;28;20060;-69
2022/05/06 12:51:03;;;;;;;;;;;;;;;;;;5079953;28;20325;-70
2022/05/06 12:53:29;;;;;;;3.67;1.58;;;;;;;;;;5079562;28;20478;-70
2022/05/06 12:55:55;;;;;;;4.00;1.70;;;;;;;;;;5062427;28;20044;-70
2022/05/06 12:58:27;;;;;;;2.88;1.40;;;;;;;;;;5062821;28;20071;-70
2022/05/06 13:00:54;;;;;;;3.58;1.67;;;;;;;;;;5079330;28;20063;-70
2022/05/06 13:03:20;;;;;;;3.22;1.48;;;;;;;;;;5079586;28;20436;-70
2022/05/06 13:05:46;;;;;;;3.28;1.65;;;;;;;;;;5078785;28;20048;-70
2022/05/06 13:08:12;;;;;;;3.53;1.58;;;;;;;;;;5078788;28;20051;-70
2022/05/06 13:10:38;;;;;;;3.55;1.60;;;;;;;;;;5078822;28;20196;-70
2022/05/06 13:13:04;;;;;;;3.55;1.52;;;;;;;;;;5062175;28;20646;-70
2022/05/06 13:15:30;;;;;;;4.35;1.48;;;;;;;;;;5064333;28;20066;-70
2022/05/06 13:17:56;;;;;;;3.53;1.60;;;;;;;;;;5042414;28;20552;-70
2022/05/06 13:20:22;;;;;;;2.90;1.40;;;;;;;;;;5058600;28;20414;-70
2022/05/06 13:22:48;;;;;;;3.55;1.80;;;;;;;;;;5058510;28;20052;-70
2022/05/06 13:25:14;;;;;;;3.70;1.55;;;;;;;;;;5058721;28;20049;-70
2022/05/06 13:27:40;;;;;;;3.80;1.40;;;;;;;;;;5058457;28;20247;-70
2022/05/06 13:30:08;;;;;;;3.65;1.60;;;;;;;;;;5058552;28;20051;-69
2022/05/06 13:32:34;;;;;;;3.20;1.38;;;;;;;;;;5058538;28;20316;-70
2022/05/06 13:35:00;;;;;;;3.00;1.33;;;;;;;;;;5058675;28;20192;-70
2022/05/06 13:37:26;;;;;;;3.58;1.60;;;;;;;;;;5058604;28;20040;-71
2022/05/06 13:39:52;;;;;;;3.30;1.50;;;;;;;;;;5058221;28;20438;-70
2022/05/06 13:42:18;;;;;;;3.45;1.63;;;;;;;;;;5059038;28;20056;-70
2022/05/06 13:44:46;;;;;;;3.17;1.52;;;;;;;;;;5057890;28;20139;-70
2022/05/06 13:47:12;;;;;;;3.30;1.30;;;;;;;;;;5058520;28;20070;-70
2022/05/06 13:49:38;;;;;;;3.80;1.40;;;;;;;;;;5076438;28;20052;-70
2022/05/06 13:52:04;;;;;;;3.15;1.40;;;;;;;;;;5078800;28;20463;-70
2022/05/06 13:54:30;;;;;;;3.55;1.38;;;;;;;;;;5078613;28;20072;-70
2022/05/06 13:59:41;;;;;;;2.88;1.40;;;;;;;;;;5078291;28;20284;-70
2022/05/06 14:02:07;;;;;;;3.45;1.23;;;;;;;;;;5075989;28;20043;-70
2022/05/06 14:04:35;;;;;;;3.80;1.58;;;;;;;;;;5058155;28;20055;-70
2022/05/06 14:07:01;;;;;;;3.78;1.60;;;;;;;;;;5058577;28;20048;-70
2022/05/06 14:09:27;;;;;;;3.28;1.50;;;;;;;;;;5058154;28;20051;-70
2022/05/06 14:11:53;;;;;;;2.80;1.27;;;;;;;;;;5058157;28;20129;-71
2022/05/06 14:14:20;;;;;;;3.35;1.27;;;;;;;;;;5058007;28;20044;-69
2022/05/06 14:16:46;;;;;;;3.40;1.42;;;;;;;;;;5058092;28;20336;-69
2022/05/06 14:19:12;;;;;;;3.20;1.50;;;;;;;;;;5058365;28;20240;-69
2022/05/06 14:21:38;;;;;;;2.75;1.30;;;;;;;;;;5057701;28;20051;-69
2022/05/06 14:24:04;;;;;;;3.08;1.33;;;;;;;;;;5057861;28;20052;-69
2022/05/06 14:26:32;;;;;;;2.70;1.30;;;;;;;;;;5058159;28;20439;-69
2022/05/06 14:28:58;;;;;;;3.53;1.58;;;;;;;;;;5057929;28;20101;-69
2022/05/06 14:31:24;;;;;;;3.05;1.23;;;;;;;;;;5057914;28;20143;-69
2022/05/06 14:33:50;;;;;;;2.50;1.30;;;;;;;;;;5058983;28;20117;-69
2022/05/06 14:36:19;;;;;;;3.10;1.40;;;;;;;;;;5057802;28;20594;-69
2022/05/06 14:38:45;;;;;;;3.13;1.30;;;;;;;;;;5057916;28;20063;-69
2022/05/06 14:41:12;;;;;;;2.75;1.23;;;;;;;;;;5058234;28;20040;-69
2022/05/06 14:43:37;;;;;;;2.47;1.10;;;;;;;;;;5057980;28;20044;-69
2022/05/06 14:46:03;;;;;;;3.03;1.40;;;;;;;;;;5041509;28;20048;-70
2022/05/06 14:48:29;;;;;;;3.63;1.52;;;;;;;;;;5057729;28;20626;-70
2022/05/06 14:50:56;;;;;;;2.75;1.20;;;;;;;;;;5057624;28;20184;-70
2022/05/06 14:53:22;;;;;;;3.10;1.23;;;;;;;;;;5059596;28;20377;-70
2022/05/06 14:55:47;;;;;;;3.20;1.30;;;;;;;;;;5059260;28;20044;-69
2022/05/06 14:58:13;;;;;;;2.33;1.10;;;;;;;;;;5061895;28;20055;-69
2022/05/06 15:00:39;;;;;;;3.00;1.20;;;;;;;;;;5063393;28;20403;-70
2022/05/06 15:03:05;;;;;;;2.75;1.23;;;;;;;;;;5045159;28;20055;-70
2022/05/06 15:05:31;;;;;;;2.83;1.20;;;;;;;;;;5061514;28;20121;-69
2022/05/06 15:07:57;;;;;;;2.92;1.27;;;;;;;;;;5061328;28;20505;-70
2022/05/06 15:10:24;;;;;;;3.03;1.30;;;;;;;;;;5066632;28;20044;-70
2022/05/06 15:12:50;;;;;;;3.47;1.42;;;;;;;;;;5082047;28;20500;-70
2022/05/06 15:15:16;;;;;;;3.67;1.63;;;;;;;;;;5081875;28;20110;-69
2022/05/06 15:17:42;;;;;;;3.83;1.33;;;;;;;;;;5081726;28;20059;-70
2022/05/06 15:20:09;;;;;;;3.28;1.30;;;;;;;;;;5081668;28;20091;-70
2022/05/06 15:22:35;;;;;;;2.63;1.10;;;;;;;;;;5081192;28;20063;-70
2022/05/06 15:25:02;;;;;;;2.03;0.95;;;;;;;;;;5081217;28;20171;-70
2022/05/06 15:27:28;;;;;;;2.33;1.08;;;;;;;;;;5064078;28;20047;-70
2022/05/06 15:29:54;;;;;;;3.22;1.38;;;;;;;;;;5081201;28;20622;-70